Weather reports worldwide

Advertisment
Teruel, Spain (8235): temperature & dewpoint: 14.01.2021 14:00:00 - 20.01.2021 14:00:00 (CET)Teruel, Spain (8235): wind speed: 14.01.2021 14:00:00 - 20.01.2021 14:00:00 (CET)Teruel, Spain (8235): wind direction: 14.01.2021 14:00:00 - 20.01.2021 14:00:00 (CET)Teruel, Spain (8235): visibility: 14.01.2021 14:00:00 - 20.01.2021 14:00:00 (CET)Teruel, Spain (8235): precipitation: 14.01.2021 14:00:00 - 20.01.2021 14:00:00 (CET)
Date & Time tt [°C] td [°C] ff [km/h] ff [kn] dd vv [km] rr [mm]
20.01.2021 14:00:00 - - - - - - -
20.01.2021 13:00:00 6,7 1,8 11 6 S 20 -
20.01.2021 12:00:00 6,2 0,9 9 5 SSE 19 0,0
20.01.2021 11:00:00 4,7 0,5 8 4 S 20 0,0
20.01.2021 10:00:00 2,0 -1,4 4 2 NE 20 -
20.01.2021 09:00:00 1,4 -1,5 11 6 S 20 0,0
20.01.2021 08:00:00 -1,2 -2,6 15 8 S 20 0,0
20.01.2021 07:00:00 -2,4 -3,7 4 2 ESE 20 -
20.01.2021 06:00:00 -5,3 -6,7 4 2 E 19 0,0
20.01.2021 05:00:00 -6,4 -7,5 4 2 ENE 19 0,0
20.01.2021 04:00:00 -6,4 -7,2 2 1 N 19 -
20.01.2021 03:00:00 -6,1 -7,3 2 1 NNW 20 0,0
20.01.2021 02:00:00 -5,5 -6,7 2 1 W 18 0,0
20.01.2021 01:00:00 -4,6 -5,8 0 0 N 20 -
20.01.2021 00:00:00 -3,9 -5,4 4 2 ENE 20 0,0
19.01.2021 23:00:00 -2,8 -4,7 2 1 W 19 0,0
19.01.2021 22:00:00 -1,8 -3,8 4 2 NW 15 -
19.01.2021 21:00:00 -0,7 -3,6 4 2 N 20 0,0
19.01.2021 20:00:00 1,1 -2,7 5 3 NNE 20 0,0
19.01.2021 19:00:00 4,0 -1,0 4 2 E 20 -
19.01.2021 18:00:00 7,0 -0,2 8 4 S 20 0,0
19.01.2021 17:00:00 8,1 0,1 4 2 ESE 20 0,0
19.01.2021 16:00:00 6,4 -0,8 4 2 E 19 -
19.01.2021 15:00:00 5,8 -1,4 4 2 NE 20 0,0
19.01.2021 14:00:00 4,3 -1,9 2 1 ESE 19 0,0
19.01.2021 13:00:00 1,9 -3,0 2 1 ENE 19 -
19.01.2021 12:00:00 -1,1 -4,3 2 1 N 20 0,0
19.01.2021 11:00:00 -4,7 -5,9 2 1 WNW 10 0,0
19.01.2021 10:00:00 -7,0 -7,8 2 1 NNE 0,3 -
19.01.2021 09:00:00 -8,8 -9,5 2 1 N 11 0,0
19.01.2021 08:00:00 -9,1 -10,0 2 1 NNE 6 0,0
19.01.2021 07:00:00 -7,9 -8,6 2 1 NE 0,1 -
19.01.2021 06:00:00 -8,3 -8,8 2 1 NNE 0,6 0,0
19.01.2021 05:00:00 -8,3 -9,1 2 1 N 8 0,0
19.01.2021 04:00:00 -7,9 -8,6 4 2 NNW 2,4 -
19.01.2021 03:00:00 -7,1 -8,3 2 1 N 20 0,0
19.01.2021 02:00:00 -6,6 -7,7 2 1 WNW 16 0,0
19.01.2021 01:00:00 -5,7 -6,7 2 1 W 8 -
19.01.2021 00:00:00 -5,2 -6,4 4 2 N 19 0,0
18.01.2021 23:00:00 -4,2 -5,6 2 1 NNE 13 0,0
18.01.2021 22:00:00 -2,8 -3,9 4 2 W 12 -
18.01.2021 21:00:00 -2,1 -3,4 4 2 NNE 13 0,0
18.01.2021 20:00:00 0,2 -1,4 4 2 WNW 15 0,0
18.01.2021 19:00:00 1,4 -0,5 2 1 NW 20 -
18.01.2021 18:00:00 3,2 0,1 5 3 N 20 0,0
18.01.2021 17:00:00 5,8 0,9 4 2 NNW 20 0,0
18.01.2021 16:00:00 7,3 1,4 5 3 NNW 20 -
18.01.2021 15:00:00 8,6 1,5 4 2 N 20 0,0
18.01.2021 14:00:00 7,1 1,2 5 3 N 20 0,0
18.01.2021 13:00:00 6,5 1,0 4 2 N 20 -
18.01.2021 12:00:00 5,0 0,0 2 1 N 20 0,0
18.01.2021 11:00:00 3,2 -1,2 2 1 WNW 19 0,0
18.01.2021 10:00:00 0,3 -2,1 2 1 NE 19 -
18.01.2021 09:00:00 -1,4 -3,4 4 2 W 18 0,0
18.01.2021 08:00:00 -2,3 -4,3 4 2 W 18 0,0
18.01.2021 07:00:00 -2,9 -4,8 4 2 W 20 -
18.01.2021 06:00:00 -4,4 -5,8 4 2 WNW 18 0,0
18.01.2021 05:00:00 -5,5 -6,9 2 1 WNW 19 0,0
18.01.2021 04:00:00 -6,0 -7,7 2 1 WNW 19 -
18.01.2021 03:00:00 -5,6 -7,3 2 1 N 18 0,0
18.01.2021 02:00:00 -5,5 -7,0 4 2 NE 15 0,0
18.01.2021 01:00:00 -4,7 -6,7 4 2 ESE 16 -
18.01.2021 00:00:00 -4,0 -6,5 4 2 NW 17 0,0
17.01.2021 23:00:00 -3,6 -6,6 5 3 N 19 0,0
17.01.2021 22:00:00 -3,3 -6,6 2 1 W 19 -
17.01.2021 21:00:00 -1,9 -6,5 2 1 SW 20 0,0
17.01.2021 20:00:00 -1,5 -6,5 4 2 N 20 0,0
17.01.2021 19:00:00 -0,6 -6,2 4 2 NNE 20 -
17.01.2021 18:00:00 2,5 -6,1 8 4 NW 20 0,0
17.01.2021 17:00:00 5,4 -4,7 5 3 W 18 0,0
17.01.2021 16:00:00 5,3 -4,8 4 2 N 19 -
17.01.2021 15:00:00 6,9 -6,1 5 3 WSW 19 0,0
17.01.2021 14:00:00 4,0 -5,8 2 1 NNE 20 0,0
17.01.2021 13:00:00 2,0 -6,8 4 2 NNE 20 -
17.01.2021 12:00:00 -0,9 -7,9 2 1 N 20 0,0
17.01.2021 11:00:00 -3,6 -9,4 2 1 NE 20 0,0
17.01.2021 10:00:00 -8,6 -11,7 4 2 NNE 20 -
17.01.2021 09:00:00 -11,1 -13,1 2 1 NNW 20 0,0
17.01.2021 08:00:00 -11,0 -13,5 2 1 NW 20 0,0
17.01.2021 07:00:00 -10,4 -12,6 5 3 N 20 -
17.01.2021 06:00:00 -9,5 -11,4 2 1 NW 20 0,0
17.01.2021 05:00:00 -8,5 -10,7 2 1 WNW 17 0,0
17.01.2021 04:00:00 -8,5 -10,9 2 1 NW 20 -
17.01.2021 03:00:00 -7,6 -9,7 2 1 NNE 17 0,0
17.01.2021 02:00:00 -7,7 -10,6 4 2 N 19 0,0
17.01.2021 01:00:00 -7,2 -10,2 5 3 N 19 -
17.01.2021 00:00:00 -7,1 -10,0 5 3 N 20 0,0
16.01.2021 23:00:00 -6,0 -9,1 4 2 WNW 20 0,0
16.01.2021 22:00:00 -5,0 -8,6 4 2 N 19 -
16.01.2021 21:00:00 -3,8 -8,1 4 2 NW 20 0,0
16.01.2021 20:00:00 -1,9 -5,7 2 1 SE 14 0,0
16.01.2021 19:00:00 -1,0 -5,8 4 2 NW 19 -
16.01.2021 18:00:00 1,8 -4,9 5 3 NNW 20 0,0
16.01.2021 17:00:00 4,2 -4,5 4 2 N 20 0,0
16.01.2021 16:00:00 5,9 -4,3 4 2 NW 20 -
16.01.2021 15:00:00 4,6 -3,4 5 3 NW 19 0,0
16.01.2021 14:00:00 3,9 -4,1 5 3 NNE 20 0,0
16.01.2021 13:00:00 2,9 -4,1 5 3 NNW 19 -
16.01.2021 12:00:00 2,1 -4,4 5 3 NNW 19 0,0
16.01.2021 11:00:00 1,3 -4,8 4 2 WSW 20 0,0
16.01.2021 10:00:00 -3,5 -5,8 4 2 W 20 -
16.01.2021 09:00:00 -6,1 -7,5 4 2 W 20 0,0
16.01.2021 08:00:00 -4,6 -6,1 5 3 WNW 20 0,0
16.01.2021 07:00:00 -4,6 -6,3 5 3 N 19 -
16.01.2021 06:00:00 -2,2 -5,2 5 3 N 20 0,0
16.01.2021 05:00:00 -1,2 -4,0 5 3 N 20 0,0
16.01.2021 04:00:00 -0,5 -3,7 9 5 NW 20 -
16.01.2021 03:00:00 -1,8 -4,1 4 2 NW 19 0,0
16.01.2021 02:00:00 0,4 -2,8 11 6 N 20 0,0
16.01.2021 01:00:00 0,8 -2,6 15 8 NW 20 -
16.01.2021 00:00:00 1,6 -2,4 15 8 NW 20 0,0
15.01.2021 23:00:00 1,7 -1,6 18 10 NNW 19 0,0
15.01.2021 22:00:00 -0,1 -3,1 11 6 W 20 -
15.01.2021 21:00:00 1,3 -2,1 11 6 WNW 20 0,0
15.01.2021 20:00:00 1,0 -2,9 9 5 WNW 20 0,0
15.01.2021 19:00:00 1,6 -2,0 8 4 NW 20 -
15.01.2021 18:00:00 3,1 -1,5 5 3 NNW 20 0,0
15.01.2021 17:00:00 4,2 -1,0 5 3 NW 20 0,0
15.01.2021 16:00:00 4,9 -0,7 5 3 NNW 20 -
15.01.2021 15:00:00 5,5 -0,8 5 3 N 20 0,0
15.01.2021 14:00:00 4,8 -1,0 11 6 ENE 20 0,0
15.01.2021 13:00:00 4,2 -1,2 13 7 NNW 20 -
15.01.2021 12:00:00 1,4 -1,3 8 4 W 19 0,0
15.01.2021 11:00:00 -1,1 -1,9 9 5 W 6 0,0
15.01.2021 10:00:00 -1,7 -2,4 4 2 WSW 4,2 -
15.01.2021 09:00:00 -3,4 -3,9 4 2 SE 10 0,0
15.01.2021 08:00:00 -4,3 -4,8 4 2 WNW 10 0,0
15.01.2021 07:00:00 -4,7 -5,4 4 2 W 12 -
15.01.2021 06:00:00 -3,7 -4,4 4 2 N 8 0,0
15.01.2021 05:00:00 -2,7 -3,8 4 2 NE 11 0,0
15.01.2021 04:00:00 -1,5 -2,2 8 4 NNE 17 -
15.01.2021 03:00:00 -1,0 -2,6 2 1 E 19 0,0
15.01.2021 02:00:00 0,5 -1,6 9 5 WNW 19 0,0
15.01.2021 01:00:00 -0,2 -1,3 5 3 S 19 -
15.01.2021 00:00:00 -1,9 -4,4 5 3 E 15 0,0
14.01.2021 23:00:00 -2,4 -4,9 2 1 NE 16 0,0
14.01.2021 22:00:00 -3,5 -6,1 2 1 E 16 -
14.01.2021 21:00:00 -4,8 -7,2 4 2 N 16 0,0
14.01.2021 20:00:00 -4,8 -8,4 4 2 N 19 0,0
14.01.2021 19:00:00 -4,3 -8,1 4 2 NW 19 -
14.01.2021 18:00:00 -3,5 -7,6 4 2 N 19 0,0
14.01.2021 17:00:00 0,4 -6,0 5 3 WSW 18 0,0
14.01.2021 16:00:00 0,5 -5,5 4 2 WSW 16 -
14.01.2021 15:00:00 0,6 -5,9 4 2 NE 19 0,0
14.01.2021 14:00:00 -2,3 -7,8 5 3 NNW 18 0,0

tt = temperature
td = dewpoint
ff = wind speed
dd = wind direction
vv = visibility
rr = precipitation

Next stations